Airfield :
LOGIN :

Register | Disclaimer

   EN    FR    IT 

 










Legend :    VFR   Marginal VFR   IFR   Intensive IFR   Very Intensive IFR
Visi :
Ceiling :
>= 8 km
>= 3000ft
5 to 8 km
1000 to 3000 ft
1500m to 5 km
500 to 1000 ft
800 to 1500m
200 to 500 ft
< 800m
< 200 ft
Symbols :   Thunderstorms  Fog  Heavy snow  Heavy precipitations  Wind > 20 kt
SIGMETs :     Misc.  Thunderstorms  Icing  Turbulence  Mountain Waves  Volcanic Ashes







- Airport Elevation : 74 ft
- IATA code : LRH
- Download approach charts


LFBH - La Rochelle Ile de Ré

CURRENT METAR :
  • 191930Z AUTO 19016KT 9999 FEW018 BKN098 OVC110 18/14 Q1009 TEMPO 3000 RA BKN010 BECMG 20015G25KT

EXPIRED METARs :
  • 191900Z AUTO 19016KT 9999 FEW023 18/14 Q1009 BECMG 20015G25KT 4000 -RA BKN014
  • 191830Z AUTO 19014KT 9999 FEW022 17/14 Q1009 BECMG 20015G25KT 4000 -RA BKN014
  • 191800Z AUTO 19013KT CAVOK 18/14 Q1009 BECMG 20015G25KT 4000 -RA BKN014
  • 191730Z AUTO 19013KT CAVOK 18/13 Q1009
  • 191700Z AUTO 19012KT 9999 FEW023 18/13 Q1009

TAF TAF LFBH
Valid from the 19 at 18:00 until the 20 at 18:00 UTC


191700Z 1918/2018 19012KT 9999 BKN025
BECMG 1918/1920 20015G25KT 4000 -RA BKN014
TEMPO 1921/2001 3000 RA BKN010
BECMG 2001/2003 28008KT 9999 NSW BKN030
BECMG 2006/2008 24010KT
BECMG 2014/2016 CAVOK
ATIS : +33 5 46 00 13 92
No reported NOTAMs for that airfield.
2 SIGMETs reported for the Bordeaux FIR (LFBB) :
 
Severe turbulence
LFBB SIGMET 9 VALID 191800/192200 LFPW
LFBB BORDEAUX FIR/UIR SEV TURB FCST SW OF LINE N4245 E00015 - N4545 W00145 FL220/310 MOV E 30KT WKN=
Embedded thunderstorms
LFBB SIGMET 10 VALID 191900/192100 LFPW
LFBB BORDEAUX FIR/UIR EMBD TS OBS S OF N4345 AND E OF E00215 TOP FL370 STNR NC=



MET'MAP, your aeronautical weather chart ! - Copyright ORBIFLY December 2007 - Disclaimer

ORBIFLY MET'MAP TEAM :

Programming & Development : Alexandra Zaïnal
Concept & Development : Baudouin d'Aumeries
Co-Development & Prog : Marc-Olivier Méhu
Technical & hardware support : Manuel Goepfert

Contact : metmap@orbifly.com




SOURCES & CREDITS :

   NOAA